Time;durP1;ratioP1;P1;durP2;ratioP2;P2;SDS_P1;SDS_P2;PMS_P1;PMS_P2;Temp;Humidity;BMP_temperature;BMP_pressure;BME280_temperature;BME280_humidity;BME280_pressure;Samples;Min_cycle;Max_cycle;Signal;HPM_P1;HPM_P2
2022/01/17 00:02:17;;;;;;;;;44.25;38.00;;;;;6.46;78.38;102639.59;5056515;28;45371;-61
2022/01/17 00:04:43;;;;;;;;;43.25;39.00;;;;;6.48;79.15;102650.97;5037671;28;46125;-60
2022/01/17 00:07:08;;;;;;;;;44.00;37.50;;;;;6.48;78.71;102646.63;5056501;28;45647;-59
2022/01/17 00:09:33;;;;;;;;;41.50;37.50;;;;;6.50;78.42;102654.47;5055581;28;45384;-59
2022/01/17 00:11:59;;;;;;;;;41.50;37.00;;;;;6.49;79.15;102652.72;5056290;28;45392;-61
2022/01/17 00:14:29;;;;;;;;;38.25;34.00;;;;;6.49;78.42;102650.09;5056342;28;45379;-60
2022/01/17 00:17:08;;;;;;;;;40.25;36.00;;;;;6.48;79.53;102654.47;5038357;28;45424;-61
2022/01/17 00:19:41;;;;;;;;;41.25;36.75;;;;;6.50;79.24;102655.38;5037981;28;45397;-61
2022/01/17 00:22:06;;;;;;;;;40.75;36.00;;;;;6.50;79.83;102659.69;5036902;28;46938;-60
2022/01/17 00:24:32;;;;;;;;;40.75;33.75;;;;;6.51;79.52;102658.84;5056159;28;45477;-61
2022/01/17 00:26:57;;;;;;;;;44.75;37.25;;;;;6.51;78.66;102654.50;5056227;28;45348;-59
2022/01/17 00:29:23;;;;;;;;;38.75;35.25;;;;;6.47;79.35;102646.59;5056303;28;45380;-60
2022/01/17 00:31:48;;;;;;;;;36.00;35.25;;;;;6.49;79.06;102643.13;5055599;28;45815;-61
2022/01/17 00:34:13;;;;;;;;;44.00;35.25;;;;;6.50;79.66;102649.22;5055966;28;45392;-61
2022/01/17 00:36:39;;;;;;;;;37.50;37.25;;;;;6.52;79.33;102651.00;5056063;28;45321;-60
2022/01/17 00:39:04;;;;;;;;;40.75;36.75;;;;;6.52;80.08;102644.91;5056198;28;45334;-61
2022/01/17 00:41:30;;;;;;;;;46.75;40.00;;;;;6.54;79.07;102645.81;5055858;28;45716;-60
2022/01/17 00:43:55;;;;;;;;;46.00;39.00;;;;;6.53;79.84;102644.03;5055450;28;45324;-60
2022/01/17 00:46:21;;;;;;;;;39.25;36.50;;;;;6.52;79.66;102639.69;5056328;28;45735;-60
2022/01/17 00:48:46;;;;;;;;;41.75;37.50;;;;;6.54;78.81;102649.31;5056052;28;45435;-61
2022/01/17 00:51:11;;;;;;;;;41.75;36.75;;;;;6.53;77.80;102644.94;5037634;28;46935;-60
2022/01/17 00:53:37;;;;;;;;;37.75;36.50;;;;;6.54;78.48;102645.81;5055409;28;47196;-60
2022/01/17 00:56:04;;;;;;;;;38.00;37.75;;;;;6.54;78.40;102648.44;5055811;28;45482;-60
2022/01/17 00:58:29;;;;;;;;;35.25;35.25;;;;;6.54;77.43;102648.44;5055895;28;45551;-61
2022/01/17 01:00:54;;;;;;;;;36.75;35.50;;;;;6.53;78.03;102652.78;5055836;28;46359;-61
2022/01/17 01:03:21;;;;;;;;;38.75;35.50;;;;;6.53;78.34;102654.50;5055803;28;45567;-59
2022/01/17 01:05:46;;;;;;;;;39.50;35.50;;;;;6.55;78.44;102651.06;5055694;28;45586;-61
2022/01/17 01:08:12;;;;;;;;;33.25;31.75;;;;;6.57;79.08;102651.97;5055711;28;45747;-61
2022/01/17 01:10:37;;;;;;;;;35.00;32.75;;;;;6.57;78.03;102645.88;5037719;28;47061;-61
2022/01/17 01:13:04;;;;;;;;;36.75;33.25;;;;;6.58;77.98;102647.59;5037808;28;45388;-61
2022/01/17 01:18:36;;;;;;;;;46.25;38.25;;;;;6.58;78.41;102645.00;5055815;28;45440;-60
2022/01/17 01:29:20;;;;;;;;;40.25;36.25;;;;;6.59;79.04;102647.63;5055677;28;45346;-61
2022/01/17 01:31:51;;;;;;;;;41.00;38.25;;;;;6.61;79.27;102655.53;5055329;28;46203;-60
2022/01/17 01:34:18;;;;;;;;;44.75;38.25;;;;;6.59;79.43;102649.38;5055254;28;45495;-60
2022/01/17 01:36:47;;;;;;;;;37.00;33.75;;;;;6.60;79.35;102649.38;5037477;28;45515;-60
2022/01/17 01:39:12;;;;;;;;;36.00;35.25;;;;;6.60;79.47;102643.28;5054784;28;45522;-60
2022/01/17 01:41:43;;;;;;;;;36.25;33.50;;;;;6.59;78.87;102638.94;5055425;28;45876;-61
2022/01/17 01:44:16;;;;;;;;;48.25;41.00;;;;;6.62;78.97;102644.19;5054337;28;45404;-60
2022/01/17 01:46:44;;;;;;;;;41.75;34.75;;;;;6.62;78.81;102644.19;5055552;28;45608;-61
2022/01/17 01:49:10;;;;;;;;;43.25;39.25;;;;;6.61;77.88;102647.69;5036572;28;45474;-60
2022/01/17 01:51:36;;;;;;;;;44.50;37.75;;;;;6.59;77.92;102644.16;5055140;28;46005;-60
2022/01/17 01:54:01;;;;;;;;;43.25;38.25;;;;;6.60;78.50;102651.13;5054886;28;45526;-60
2022/01/17 01:56:27;;;;;;;;;43.00;40.50;;;;;6.59;78.67;102654.63;5055485;28;45930;-60
2022/01/17 01:58:52;;;;;;;;;42.00;37.00;;;;;6.64;78.37;102658.19;5055212;28;45462;-61
2022/01/17 02:01:17;;;;;;;;;49.00;41.75;;;;;6.60;77.86;102657.22;5054334;28;45934;-60
2022/01/17 02:03:43;;;;;;;;;46.50;40.75;;;;;6.63;77.88;102664.25;5055101;28;45400;-61
2022/01/17 02:06:08;;;;;;;;;42.75;38.50;;;;;6.63;78.08;102672.97;5054786;28;45344;-61
2022/01/17 02:08:34;;;;;;;;;43.00;38.50;;;;;6.60;78.26;102672.91;5055193;28;45321;-61
2022/01/17 02:10:59;;;;;;;;;48.75;40.25;;;;;6.60;78.16;102667.69;5054404;28;45443;-60
2022/01/17 02:13:26;;;;;;;;;49.00;41.00;;;;;6.61;77.95;102668.59;5054304;28;45540;-60
2022/01/17 02:15:59;;;;;;;;;51.75;41.00;;;;;6.63;77.76;102669.47;5055229;28;45431;-60
2022/01/17 02:18:30;;;;;;;;;45.75;41.25;;;;;6.62;77.72;102670.34;5053644;28;45616;-61
2022/01/17 02:23:35;;;;;;;;;49.50;41.50;;;;;6.61;77.99;102665.97;5054726;28;45419;-61
2022/01/17 02:26:01;;;;;;;;;47.00;41.75;;;;;6.58;78.19;102658.97;5054900;28;45500;-61
2022/01/17 02:28:26;;;;;;;;;48.75;41.50;;;;;6.59;78.39;102655.50;5057826;28;45540;-60
2022/01/17 02:30:52;;;;;;;;;42.75;38.50;;;;;6.60;78.23;102653.75;5058126;28;45510;-61
2022/01/17 02:33:19;;;;;;;;;50.75;42.25;;;;;6.59;78.16;102660.72;5057841;28;45521;-60
2022/01/17 02:35:47;;;;;;;;;43.75;41.25;;;;;6.60;77.84;102653.75;5058299;28;45509;-60
2022/01/17 02:38:13;;;;;;;;;46.25;41.50;;;;;6.65;78.46;102654.69;5057960;28;45384;-61
2022/01/17 02:40:38;;;;;;;;;50.00;42.25;;;;;6.64;78.82;102653.81;5057914;28;45377;-60
2022/01/17 02:43:06;;;;;;;;;50.50;42.50;;;;;6.64;78.62;102640.75;5057793;28;45390;-61
2022/01/17 02:46:24;;;;;;;;;49.75;40.25;;;;;6.64;78.46;102645.09;5057918;28;45545;-61
2022/01/17 02:48:24;;;;;;;;;46.75;41.00;;;;;6.64;78.21;102650.34;5057702;28;45428;-60
2022/01/17 02:50:51;;;;;;;;;56.75;44.00;;;;;6.64;78.24;102642.50;5057214;28;45399;-61
2022/01/17 02:53:16;;;;;;;;;44.25;40.75;;;;;6.62;78.29;102646.81;5057668;28;45456;-60
2022/01/17 02:55:49;;;;;;;;;51.00;42.25;;;;;6.63;78.66;102646.81;5057305;28;45364;-60
2022/01/17 02:58:17;;;;;;;;;46.25;40.50;;;;;6.64;78.62;102645.09;5058370;28;45393;-61
2022/01/17 03:00:43;;;;;;;;;39.50;37.50;;;;;6.64;78.24;102645.97;5057665;28;46183;-60
2022/01/17 03:03:21;;;;;;;;;56.50;45.50;;;;;6.64;78.67;102647.72;5057681;28;45435;-61
2022/01/17 03:05:48;;;;;;;;;49.00;40.00;;;;;6.64;78.24;102647.72;5057433;28;45375;-60
2022/01/17 03:08:16;;;;;;;;;49.50;39.25;;;;;6.63;78.54;102654.66;5057832;28;45486;-61
2022/01/17 03:10:43;;;;;;;;;47.25;41.25;;;;;6.64;77.95;102658.19;5057581;28;46045;-61
2022/01/17 03:13:25;;;;;;;;;50.00;42.25;;;;;6.62;78.06;102659.88;5057381;28;45419;-60
2022/01/17 03:15:55;;;;;;;;;44.75;41.00;;;;;6.61;78.14;102663.38;5057659;28;45334;-60
2022/01/17 03:18:20;;;;;;;;;39.50;38.75;;;;;6.60;78.10;102672.03;5057002;28;45686;-60
2022/01/17 03:20:46;;;;;;;;;43.50;37.00;;;;;6.61;77.68;102671.22;5057427;28;45500;-60
2022/01/17 03:23:11;;;;;;;;;47.75;40.75;;;;;6.59;78.06;102670.28;5056101;28;45485;-61
2022/01/17 03:25:37;;;;;;;;;41.00;36.00;;;;;6.60;77.62;102674.66;5057541;28;45477;-61
2022/01/17 03:28:03;;;;;;;;;46.75;40.75;;;;;6.60;76.94;102674.66;5057002;28;45523;-60
2022/01/17 03:30:31;;;;;;;;;51.50;41.00;;;;;6.60;77.73;102670.31;5057334;28;46276;-61
2022/01/17 03:32:56;;;;;;;;;46.25;40.25;;;;;6.59;77.56;102676.41;5038562;28;45769;-61
2022/01/17 03:35:22;;;;;;;;;46.50;39.50;;;;;6.62;78.12;102684.28;5057162;28;45411;-61
2022/01/17 03:37:47;;;;;;;;;40.50;38.75;;;;;6.62;78.86;102675.56;5057280;28;45618;-61
2022/01/17 03:40:13;;;;;;;;;39.50;37.50;;;;;6.63;77.81;102682.53;5055825;28;46319;-60
2022/01/17 03:42:39;;;;;;;;;42.50;39.50;;;;;6.64;78.24;102689.56;5057081;28;45467;-62
2022/01/17 03:45:09;;;;;;;;;48.00;40.00;;;;;6.64;78.44;102693.03;5057351;28;45448;-61
2022/01/17 03:47:40;;;;;;;;;40.50;37.25;;;;;6.64;78.02;102686.94;5057086;28;45360;-61
2022/01/17 03:50:09;;;;;;;;;46.00;38.75;;;;;6.63;77.28;102687.78;5056529;28;46255;-61
2022/01/17 03:52:34;;;;;;;;;43.00;38.25;;;;;6.62;77.68;102692.13;5056734;28;45404;-60
2022/01/17 03:55:00;;;;;;;;;46.00;41.00;;;;;6.63;77.39;102690.38;5057042;28;45379;-61
2022/01/17 03:57:25;;;;;;;;;44.50;41.50;;;;;6.63;78.46;102696.50;5056782;28;45428;-60
2022/01/17 03:59:51;;;;;;;;;41.25;38.00;;;;;6.63;77.62;102701.72;5056551;28;45973;-60
2022/01/17 04:02:16;;;;;;;;;43.50;39.50;;;;;6.65;77.42;102699.13;5055683;28;45371;-60
2022/01/17 04:04:41;;;;;;;;;39.00;36.25;;;;;6.64;77.60;102706.09;5056946;28;45350;-60
2022/01/17 04:07:07;;;;;;;;;37.25;34.00;;;;;6.66;78.73;102708.72;5038863;28;45430;-60
2022/01/17 04:09:32;;;;;;;;;47.25;38.25;;;;;6.67;78.61;102705.28;5056177;28;45450;-60
2022/01/17 04:11:58;;;;;;;;;42.00;38.00;;;;;6.67;78.71;102710.50;5055921;28;45421;-61
2022/01/17 04:14:23;;;;;;;;;44.75;39.25;;;;;6.71;79.08;102719.25;5056726;28;45597;-60
2022/01/17 04:16:48;;;;;;;;;36.00;33.50;;;;;6.73;79.22;102714.94;5056761;28;45567;-61
2022/01/17 04:19:14;;;;;;;;;39.25;38.00;;;;;6.72;79.24;102708.84;5056411;28;45449;-61
2022/01/17 04:21:39;;;;;;;;;40.75;36.75;;;;;6.75;79.61;102718.47;5056578;28;45427;-60
2022/01/17 04:24:04;;;;;;;;;42.25;37.50;;;;;6.76;78.52;102723.69;5056324;28;45441;-60
2022/01/17 04:26:30;;;;;;;;;46.00;40.50;;;;;6.74;78.55;102721.91;5038299;28;45449;-61
2022/01/17 04:28:55;;;;;;;;;45.00;40.75;;;;;6.75;78.03;102729.81;5056388;28;46070;-60
2022/01/17 04:31:21;;;;;;;;;39.75;36.75;;;;;6.74;77.46;102722.78;5056485;28;45428;-61
2022/01/17 04:33:46;;;;;;;;;43.50;37.25;;;;;6.75;78.04;102726.31;5055943;28;45418;-60
2022/01/17 04:36:12;;;;;;;;;44.50;41.00;;;;;6.74;78.14;102719.31;5056465;28;45615;-61
2022/01/17 04:38:38;;;;;;;;;40.75;39.25;;;;;6.74;78.59;102717.56;5056094;28;45939;-60
2022/01/17 04:41:12;;;;;;;;;39.00;36.25;;;;;6.75;78.37;102708.00;5056263;28;45443;-61
2022/01/17 04:46:09;;;;;;;;;28.00;27.25;;;;;6.79;77.82;102705.44;5055725;28;45364;-60
2022/01/17 04:48:36;;;;;;;;;31.00;27.25;;;;;6.81;77.54;102705.47;5055973;28;45493;-60
2022/01/17 04:51:02;;;;;;;;;32.75;30.00;;;;;6.81;77.55;102714.19;5054745;28;45431;-60
2022/01/17 04:53:28;;;;;;;;;32.00;27.75;;;;;6.83;77.30;102722.06;5056114;28;45548;-60
2022/01/17 04:55:54;;;;;;;;;31.00;29.00;;;;;6.82;76.89;102721.19;5055514;28;45598;-61
2022/01/17 04:58:20;;;;;;;;;32.50;30.25;;;;;6.83;76.88;102722.94;5055784;28;46159;-61
2022/01/17 05:00:48;;;;;;;;;31.75;27.25;;;;;6.88;76.53;102732.56;5055996;28;45398;-60
2022/01/17 05:03:19;;;;;;;;;23.75;23.00;;;;;6.89;76.21;102731.75;5056181;28;45463;-60
2022/01/17 05:05:45;;;;;;;;;31.25;29.00;;;;;6.88;76.39;102729.97;5055900;28;45452;-59
2022/01/17 05:08:10;;;;;;;;;28.50;27.00;;;;;6.88;76.66;102736.09;5055304;28;45416;-60
2022/01/17 05:10:36;;;;;;;;;26.25;23.50;;;;;6.88;76.26;102719.50;5055696;28;45478;-60
2022/01/17 05:13:02;;;;;;;;;27.75;27.25;;;;;6.88;75.65;102724.72;5055883;28;45444;-60
2022/01/17 05:15:44;;;;;;;;;24.00;24.00;;;;;6.85;76.33;102728.19;5037778;28;45549;-61
2022/01/17 05:20:39;;;;;;;;;27.75;25.75;;;;;6.80;76.19;102728.13;5055406;28;45426;-60
2022/01/17 05:23:05;;;;;;;;;24.00;22.75;;;;;6.79;76.13;102734.22;5055674;28;45411;-61
2022/01/17 05:25:30;;;;;;;;;22.75;21.25;;;;;6.78;76.09;102739.44;5055569;28;45424;-61
2022/01/17 05:27:55;;;;;;;;;30.75;29.00;;;;;6.80;76.02;102733.38;5055420;28;45432;-61
2022/01/17 05:30:23;;;;;;;;;32.25;27.25;;;;;6.82;76.34;102743.84;5055171;28;45400;-61
2022/01/17 05:32:49;;;;;;;;;28.25;25.75;;;;;6.83;75.06;102749.09;5055816;28;45535;-61
2022/01/17 05:35:15;;;;;;;;;24.50;23.00;;;;;6.83;75.74;102740.38;5055354;28;45494;-61
2022/01/17 05:37:42;;;;;;;;;25.50;23.50;;;;;6.82;76.03;102736.91;5055303;28;45536;-61
2022/01/17 05:40:10;;;;;;;;;25.25;23.00;;;;;6.78;75.71;102739.44;5054626;28;45392;-61
2022/01/17 05:42:35;;;;;;;;;28.50;24.50;;;;;6.79;76.25;102752.50;5055482;28;45449;-61
2022/01/17 05:45:01;;;;;;;;;28.25;25.00;;;;;6.78;75.81;102749.88;5055568;28;45443;-61
2022/01/17 05:47:26;;;;;;;;;26.00;25.00;;;;;6.78;75.92;102740.31;5055111;28;45992;-60
2022/01/17 05:49:51;;;;;;;;;31.75;28.00;;;;;6.77;75.68;102743.78;5055101;28;45414;-60
2022/01/17 05:52:17;;;;;;;;;25.00;24.75;;;;;6.78;75.16;102760.34;5054672;28;45348;-60
2022/01/17 05:54:43;;;;;;;;;28.25;27.50;;;;;6.78;75.69;102753.38;5055240;28;45400;-59
2022/01/17 05:57:09;;;;;;;;;27.00;24.75;;;;;6.78;75.71;102756.00;5055271;28;45917;-59
2022/01/17 05:59:34;;;;;;;;;33.25;30.00;;;;;6.79;76.21;102767.31;5055000;28;45409;-61
2022/01/17 06:02:00;;;;;;;;;31.75;30.00;;;;;6.76;76.25;102768.16;5055557;28;45376;-60
2022/01/17 06:04:26;;;;;;;;;36.75;30.75;;;;;6.76;77.01;102762.94;5058753;28;45567;-61
2022/01/17 06:06:52;;;;;;;;;36.25;34.50;;;;;6.76;76.75;102756.81;5040511;28;46598;-60
2022/01/17 06:09:17;;;;;;;;;39.75;32.75;;;;;6.77;76.95;102755.97;5058802;28;45527;-60
2022/01/17 06:11:43;;;;;;;;;37.00;35.75;;;;;6.74;76.68;102758.53;5058637;28;45494;-60
2022/01/17 06:14:09;;;;;;;;;31.00;27.50;;;;;6.74;76.81;102761.16;5058199;28;46242;-60
2022/01/17 06:16:36;;;;;;;;;37.50;36.50;;;;;6.74;77.04;102758.53;5056864;28;45526;-59
2022/01/17 06:19:03;;;;;;;;;41.50;37.75;;;;;6.73;76.98;102757.66;5058431;28;45498;-61
2022/01/17 06:21:28;;;;;;;;;35.50;28.50;;;;;6.70;76.96;102756.75;5058527;28;45334;-60
2022/01/17 06:23:53;;;;;;;;;30.25;27.75;;;;;6.71;77.46;102761.97;5058029;28;45432;-60
2022/01/17 06:26:19;;;;;;;;;41.25;32.75;;;;;6.70;77.12;102761.97;5057052;28;46139;-60
2022/01/17 06:28:45;;;;;;;;;26.25;25.75;;;;;6.68;76.86;102759.31;5058432;28;45383;-61
2022/01/17 06:31:11;;;;;;;;;33.25;30.50;;;;;6.64;76.93;102771.47;5058473;28;45356;-61
2022/01/17 06:33:36;;;;;;;;;38.50;31.50;;;;;6.60;77.03;102779.25;5058176;28;45352;-61
2022/01/17 06:36:02;;;;;;;;;38.00;33.25;;;;;6.63;77.28;102788.00;5057670;28;46026;-61
2022/01/17 06:38:28;;;;;;;;;30.00;27.75;;;;;6.60;77.14;102776.63;5057841;28;45442;-61
2022/01/17 06:40:53;;;;;;;;;33.00;29.25;;;;;6.60;77.14;102780.09;5039640;28;45557;-60
2022/01/17 06:43:18;;;;;;;;;36.50;32.75;;;;;6.62;76.47;102801.94;5058054;28;45506;-60
2022/01/17 06:45:45;;;;;;;;;31.00;30.00;;;;;6.59;76.90;102795.78;5056911;28;45437;-61
2022/01/17 06:48:11;;;;;;;;;40.50;34.25;;;;;6.56;76.55;102803.59;5057512;28;45372;-61
2022/01/17 06:50:36;;;;;;;;;28.00;24.50;;;;;6.57;76.60;102818.41;5057753;28;45450;-61
2022/01/17 06:53:03;;;;;;;;;32.75;29.75;;;;;6.58;76.62;102828.00;5057713;28;45596;-60
2022/01/17 06:55:29;;;;;;;;;40.50;36.00;;;;;6.57;76.55;102826.25;5057466;28;45722;-60
2022/01/17 06:57:54;;;;;;;;;30.75;28.50;;;;;6.58;76.44;102812.31;5057287;28;45452;-61
2022/01/17 07:00:20;;;;;;;;;38.25;33.50;;;;;6.58;76.51;102799.25;5057576;28;45452;-61
2022/01/17 07:02:45;;;;;;;;;33.50;32.00;;;;;6.59;76.65;102807.13;5057627;28;45397;-61
2022/01/17 07:05:10;;;;;;;;;29.00;29.00;;;;;6.60;76.27;102808.88;5057125;28;49878;-60
2022/01/17 07:07:36;;;;;;;;;44.00;39.50;;;;;6.62;76.26;102817.63;5057002;28;45426;-60
2022/01/17 07:10:01;;;;;;;;;31.25;29.50;;;;;6.58;76.66;102817.53;5057440;28;45492;-61
2022/01/17 07:12:27;;;;;;;;;31.00;27.75;;;;;6.56;76.89;102814.91;5057588;28;45433;-61
2022/01/17 07:14:52;;;;;;;;;34.75;29.25;;;;;6.57;76.40;102834.09;5056127;28;46113;-61
2022/01/17 07:17:18;;;;;;;;;32.50;31.50;;;;;6.59;76.58;102843.72;5057250;28;45487;-60
2022/01/17 07:19:44;;;;;;;;;34.75;33.75;;;;;6.57;77.00;102871.56;5056845;28;45525;-60
2022/01/17 07:22:09;;;;;;;;;34.50;30.50;;;;;6.57;76.21;102889.88;5057161;28;45486;-61
2022/01/17 07:24:36;;;;;;;;;40.75;37.50;;;;;6.55;76.80;102881.09;5056782;28;46131;-60
2022/01/17 07:27:01;;;;;;;;;40.75;36.75;;;;;6.53;76.57;102882.84;5057075;28;45477;-61
2022/01/17 07:29:27;;;;;;;;;29.75;28.75;;;;;6.54;76.98;102878.50;5056750;28;45375;-61
2022/01/17 07:31:54;;;;;;;;;37.00;32.75;;;;;6.54;76.48;102868.03;5057363;28;45454;-61
2022/01/17 07:34:20;;;;;;;;;38.50;34.25;;;;;6.56;76.31;102859.38;5057122;28;45324;-60
2022/01/17 07:36:45;;;;;;;;;30.50;30.25;;;;;6.53;76.76;102847.94;5057067;28;45396;-61
2022/01/17 07:39:10;;;;;;;;;31.75;28.75;;;;;6.53;77.02;102853.19;5057126;28;45456;-61
2022/01/17 07:41:36;;;;;;;;;39.75;32.50;;;;;6.47;76.71;102863.53;5056614;28;45281;-60
2022/01/17 07:44:03;;;;;;;;;36.50;36.50;;;;;6.43;76.90;102861.72;5056735;28;46221;-61
2022/01/17 07:46:36;;;;;;;;;40.75;33.25;;;;;6.36;76.98;102855.50;5057240;28;45511;-60
2022/01/17 07:49:13;;;;;;;;;40.75;37.00;;;;;6.43;76.95;102862.59;5056926;28;45466;-61
2022/01/17 07:51:42;;;;;;;;;44.25;36.50;;;;;6.44;77.01;102860.88;5055359;28;45625;-60
2022/01/17 07:54:10;;;;;;;;;39.75;38.00;;;;;6.45;76.65;102865.22;5055540;28;46154;-61
2022/01/17 07:56:36;;;;;;;;;41.50;36.50;;;;;6.43;76.49;102872.19;5056300;28;45439;-61
2022/01/17 07:59:03;;;;;;;;;38.25;33.75;;;;;6.40;77.02;102873.00;5056665;28;45415;-62
2022/01/17 08:01:28;;;;;;;;;38.75;37.25;;;;;6.40;76.86;102878.25;5056685;28;45373;-61
2022/01/17 08:03:54;;;;;;;;;45.25;41.00;;;;;6.40;76.67;102884.34;5056073;28;45486;-62
2022/01/17 08:06:19;;;;;;;;;47.25;38.25;;;;;6.38;76.61;102886.03;5056652;28;45409;-60
2022/01/17 08:08:44;;;;;;;;;45.00;39.50;;;;;6.38;76.80;102883.41;5056511;28;45429;-61
2022/01/17 08:11:10;;;;;;;;;38.00;35.00;;;;;6.39;76.86;102877.38;5056604;28;45649;-60
2022/01/17 08:13:35;;;;;;;;;36.75;35.75;;;;;6.38;76.81;102891.25;5055907;28;45466;-61
2022/01/17 08:16:02;;;;;;;;;42.00;39.25;;;;;6.39;76.71;102872.13;5056124;28;45428;-60
2022/01/17 08:18:28;;;;;;;;;40.00;38.00;;;;;6.41;76.61;102882.59;5056683;28;45374;-61
2022/01/17 08:20:53;;;;;;;;;43.50;38.50;;;;;6.40;76.45;102888.69;5037373;28;45473;-61
2022/01/17 08:23:19;;;;;;;;;41.50;40.00;;;;;6.41;76.50;102893.94;5056209;28;45349;-61
2022/01/17 08:25:44;;;;;;;;;46.50;39.00;;;;;6.43;77.17;102900.94;5055616;28;45409;-59
2022/01/17 08:28:09;;;;;;;;;44.00;36.25;;;;;6.41;76.63;102906.13;5056448;28;45914;-60
2022/01/17 08:30:35;;;;;;;;;45.75;41.00;;;;;6.41;77.00;102909.63;5056457;28;45562;-61
2022/01/17 08:33:01;;;;;;;;;43.00;40.00;;;;;6.41;76.98;102893.94;5056296;28;46182;-60
2022/01/17 08:35:27;;;;;;;;;46.00;38.50;;;;;6.40;76.61;102886.94;5055676;28;45444;-61
2022/01/17 08:37:52;;;;;;;;;45.50;41.50;;;;;6.44;76.58;102894.84;5056124;28;45425;-61
2022/01/17 08:40:18;;;;;;;;;43.25;37.25;;;;;6.50;76.54;102902.78;5055912;28;45673;-61
2022/01/17 08:42:45;;;;;;;;;47.50;39.75;;;;;6.53;76.29;102897.63;5055902;28;45483;-61
2022/01/17 08:45:12;;;;;;;;;41.00;36.75;;;;;6.53;76.37;102900.22;5056025;28;45471;-61
2022/01/17 08:47:38;;;;;;;;;36.25;34.50;;;;;6.56;76.12;102903.81;5037431;28;45413;-61
2022/01/17 08:50:05;;;;;;;;;45.25;38.50;;;;;6.60;76.27;102908.22;5056103;28;45446;-61
2022/01/17 08:52:30;;;;;;;;;42.50;40.25;;;;;6.60;76.15;102907.34;5055680;28;45341;-59
2022/01/17 08:54:57;;;;;;;;;43.00;39.25;;;;;6.63;76.41;102913.50;5055861;28;45469;-60
2022/01/17 08:57:23;;;;;;;;;45.75;38.25;;;;;6.67;76.18;102918.81;5055290;28;45552;-59
2022/01/17 08:59:48;;;;;;;;;48.75;41.25;;;;;6.67;76.40;102909.22;5055598;28;45445;-60
2022/01/17 09:02:13;;;;;;;;;43.75;39.50;;;;;6.73;76.14;102918.91;5037634;28;45475;-61
2022/01/17 09:04:42;;;;;;;;;45.25;41.25;;;;;6.72;75.76;102919.78;5055486;28;45460;-61
2022/01/17 09:07:16;;;;;;;;;54.25;44.50;;;;;6.76;75.95;102930.31;5055500;28;45329;-61
2022/01/17 09:09:44;;;;;;;;;44.25;37.50;;;;;6.80;75.50;102926.03;5055022;28;45462;-61
2022/01/17 09:12:11;;;;;;;;;39.00;38.25;;;;;6.78;75.31;102928.59;5055078;28;46233;-60
2022/01/17 09:14:38;;;;;;;;;49.50;38.25;;;;;6.74;76.02;102937.22;5055485;28;45329;-61
2022/01/17 09:17:08;;;;;;;;;44.00;39.75;;;;;6.82;75.49;102932.13;5055492;28;45383;-60
2022/01/17 09:19:39;;;;;;;;;42.75;39.00;;;;;6.86;75.84;102933.97;5055061;28;45539;-61
2022/01/17 09:22:06;;;;;;;;;48.50;41.00;;;;;6.86;75.47;102950.53;5055326;28;48322;-61
2022/01/17 09:24:32;;;;;;;;;46.50;38.75;;;;;6.88;75.47;102955.81;5055271;28;45485;-61
2022/01/17 09:26:58;;;;;;;;;43.75;37.75;;;;;6.89;75.68;102954.94;5055454;28;45474;-60
2022/01/17 09:29:23;;;;;;;;;44.75;37.50;;;;;6.93;75.02;102968.97;5055398;28;45422;-58
2022/01/17 09:31:48;;;;;;;;;44.50;36.00;;;;;6.95;75.70;102981.22;5055066;28;46167;-61
2022/01/17 09:34:14;;;;;;;;;34.50;33.75;;;;;6.99;75.19;102979.56;5037211;28;45526;-61
2022/01/17 09:36:39;;;;;;;;;39.00;37.50;;;;;7.04;75.21;102988.38;5055502;28;45575;-61
2022/01/17 09:39:07;;;;;;;;;41.75;37.50;;;;;7.02;75.23;103006.66;5058860;28;45362;-58
2022/01/17 09:41:32;;;;;;;;;48.00;38.50;;;;;6.97;75.38;103000.44;5058419;28;45423;-60
2022/01/17 09:43:58;;;;;;;;;44.00;37.00;;;;;6.99;75.00;102990.03;5058508;28;45475;-59
2022/01/17 09:46:27;;;;;;;;;43.00;38.00;;;;;7.01;75.32;102980.44;5040689;28;45441;-59
2022/01/17 09:49:00;;;;;;;;;41.50;38.50;;;;;7.06;75.26;102969.19;5058583;28;45459;-60
2022/01/17 09:54:20;;;;;;;;;42.00;39.25;;;;;7.12;75.63;102971.06;5038376;28;45682;-60
2022/01/17 09:56:47;;;;;;;;;43.25;38.00;;;;;7.15;75.56;102975.47;5058672;28;45483;-59
2022/01/17 09:59:13;;;;;;;;;48.75;40.50;;;;;7.18;75.28;102988.59;5058305;28;45424;-60
2022/01/17 10:01:39;;;;;;;;;49.75;42.25;;;;;7.18;75.63;102992.09;5058235;28;45433;-59
2022/01/17 10:04:06;;;;;;;;;53.00;41.25;;;;;7.22;75.25;102993.91;5057820;28;45383;-59
2022/01/17 10:06:33;;;;;;;;;47.25;40.25;;;;;7.25;75.38;103003.53;5058410;28;45452;-61
2022/01/17 10:09:12;;;;;;;;;42.25;37.25;;;;;7.32;75.21;103010.66;5058366;28;45522;-60
2022/01/17 10:11:59;;;;;;;;;47.25;42.75;;;;;7.35;74.68;103023.78;5058100;28;46466;-60
2022/01/17 10:14:27;;;;;;;;;43.25;37.50;;;;;7.35;74.73;103029.03;5057728;28;45432;-61
2022/01/17 10:16:53;;;;;;;;;40.25;38.25;;;;;7.25;74.37;102998.31;5058354;28;45400;-59
2022/01/17 10:19:22;;;;;;;;;45.00;40.75;;;;;7.36;74.74;103019.41;5058133;28;45606;-59
2022/01/17 10:21:51;;;;;;;;;45.50;41.75;;;;;7.42;74.29;103025.66;5058103;28;45565;-59
2022/01/17 10:24:25;;;;;;;;;43.75;38.25;;;;;7.43;74.14;103013.44;5056575;28;45425;-59
2022/01/17 10:37:17;;;;;;;;;42.75;39.00;;;;;7.40;74.32;103018.63;5057083;28;45462;-60
2022/01/17 10:40:00;;;;;;;;;47.25;39.50;;;;;7.43;74.56;103016.06;5057499;28;45531;-60
2022/01/17 10:42:41;;;;;;;;;44.50;36.25;;;;;7.40;74.08;103018.63;5057592;28;45425;-60
2022/01/17 10:45:08;;;;;;;;;46.25;37.75;;;;;7.53;73.41;103044.16;5057839;28;45422;-60
2022/01/17 10:47:37;;;;;;;;;41.00;37.50;;;;;7.55;73.76;103031.09;5038718;28;45397;-59
2022/01/17 10:50:27;;;;;;;;;36.00;35.25;;;;;7.56;73.85;103020.66;5057624;28;45372;-61
2022/01/17 10:52:58;;;;;;;;;51.25;44.00;;;;;7.58;73.71;103023.31;5056929;28;45531;-60
2022/01/17 10:55:30;;;;;;;;;40.50;35.75;;;;;7.58;73.60;103023.31;5057548;28;45526;-60
2022/01/17 10:58:02;;;;;;;;;48.00;41.00;;;;;7.60;73.34;103008.47;5057503;28;45457;-60
2022/01/17 11:00:37;;;;;;;;;50.50;40.25;;;;;7.61;73.59;103005.91;5057318;28;45519;-62
2022/01/17 11:03:15;;;;;;;;;51.75;41.25;;;;;7.61;73.71;102997.16;5057263;28;46469;-65
2022/01/17 11:05:44;;;;;;;;;44.50;38.50;;;;;7.61;73.31;102986.69;5057518;28;45560;-64
2022/01/17 11:08:09;;;;;;;;;47.50;41.75;;;;;7.64;73.50;102973.63;5056886;28;45566;-65
2022/01/17 11:10:39;;;;;;;;;49.00;41.25;;;;;7.60;73.92;102972.69;5056440;28;45489;-65
2022/01/17 11:13:08;;;;;;;;;41.25;37.25;;;;;7.60;73.17;102975.31;5057055;28;45393;-66
2022/01/17 11:15:36;;;;;;;;;52.00;44.00;;;;;7.61;73.75;102971.84;5056915;28;45400;-65
2022/01/17 11:18:25;;;;;;;;;36.25;36.00;;;;;7.68;73.27;102978.94;5056753;28;45528;-65
2022/01/17 11:20:54;;;;;;;;;39.25;38.25;;;;;7.71;73.04;102970.22;5054636;28;45546;-64
2022/01/17 11:23:21;;;;;;;;;63.25;51.00;;;;;7.71;72.99;102971.13;5054814;28;46222;-65
2022/01/17 11:25:52;;;;;;;;;52.00;43.75;;;;;7.72;72.89;102966.78;5053628;28;45462;-66
2022/01/17 11:28:18;;;;;;;;;48.00;41.75;;;;;7.73;73.19;102976.38;5054959;28;45631;-62
2022/01/17 11:30:45;;;;;;;;;47.75;40.25;;;;;7.78;72.57;102974.72;5054395;28;45428;-63
2022/01/17 11:33:11;;;;;;;;;59.75;45.00;;;;;7.82;73.41;102965.13;5054487;28;46248;-62
2022/01/17 11:35:41;;;;;;;;;59.75;48.25;;;;;7.88;73.08;102965.25;5053286;28;45475;-64
2022/01/17 11:38:11;;;;;;;;;80.50;62.75;;;;;7.95;73.12;102965.38;5055212;28;45952;-65
2022/01/17 11:40:39;;;;;;;;;61.25;50.25;;;;;7.98;72.46;102967.16;5050561;28;45535;-64
2022/01/17 11:43:19;;;;;;;;;62.50;49.25;;;;;7.95;72.38;102960.13;5053637;28;46189;-63
2022/01/17 11:45:47;;;;;;;;;60.00;47.75;;;;;7.99;72.73;102958.41;5049510;28;45663;-66
2022/01/17 11:48:30;;;;;;;;;60.00;47.25;;;;;8.04;73.14;102964.59;5056424;28;45416;-65
2022/01/17 11:50:58;;;;;;;;;49.50;40.50;;;;;8.04;72.40;102963.72;5054589;28;45519;-65